sensor_id;sensor_type;location;lat;lon;timestamp;P1;durP1;ratioP1;P2;durP2;ratioP2
71679;SDS011;59512;42.662;23.254;2023-03-14T00:01:53;25.13;;;14.32;;
71679;SDS011;59512;42.662;23.254;2023-03-14T00:04:18;25.48;;;14.10;;
71679;SDS011;59512;42.662;23.254;2023-03-14T00:06:43;33.03;;;17.83;;
71679;SDS011;59512;42.662;23.254;2023-03-14T00:09:11;41.97;;;23.65;;
71679;SDS011;59512;42.662;23.254;2023-03-14T00:11:37;27.30;;;15.80;;
71679;SDS011;59512;42.662;23.254;2023-03-14T00:14:03;30.27;;;15.68;;
71679;SDS011;59512;42.662;23.254;2023-03-14T00:16:28;31.60;;;18.33;;
71679;SDS011;59512;42.662;23.254;2023-03-14T00:18:53;29.07;;;17.17;;
71679;SDS011;59512;42.662;23.254;2023-03-14T00:21:19;29.10;;;16.20;;
71679;SDS011;59512;42.662;23.254;2023-03-14T00:23:44;26.97;;;15.57;;
71679;SDS011;59512;42.662;23.254;2023-03-14T00:26:14;25.80;;;15.30;;
71679;SDS011;59512;42.662;23.254;2023-03-14T00:28:41;24.27;;;14.65;;
71679;SDS011;59512;42.662;23.254;2023-03-14T00:31:07;28.37;;;16.70;;
71679;SDS011;59512;42.662;23.254;2023-03-14T00:33:34;26.42;;;15.20;;
71679;SDS011;59512;42.662;23.254;2023-03-14T00:36:00;28.83;;;16.35;;
71679;SDS011;59512;42.662;23.254;2023-03-14T00:38:28;29.13;;;15.93;;
71679;SDS011;59512;42.662;23.254;2023-03-14T00:40:53;32.57;;;18.80;;
71679;SDS011;59512;42.662;23.254;2023-03-14T00:43:19;35.78;;;19.35;;
71679;SDS011;59512;42.662;23.254;2023-03-14T00:45:48;30.03;;;17.83;;
71679;SDS011;59512;42.662;23.254;2023-03-14T00:48:14;30.23;;;17.90;;
71679;SDS011;59512;42.662;23.254;2023-03-14T00:50:40;28.02;;;17.52;;
71679;SDS011;59512;42.662;23.254;2023-03-14T00:53:05;30.60;;;17.23;;
71679;SDS011;59512;42.662;23.254;2023-03-14T00:55:31;27.50;;;16.63;;
71679;SDS011;59512;42.662;23.254;2023-03-14T00:57:56;26.23;;;16.80;;
71679;SDS011;59512;42.662;23.254;2023-03-14T01:00:21;26.63;;;17.03;;
71679;SDS011;59512;42.662;23.254;2023-03-14T01:02:47;26.55;;;15.70;;
71679;SDS011;59512;42.662;23.254;2023-03-14T01:05:13;25.93;;;15.07;;
71679;SDS011;59512;42.662;23.254;2023-03-14T01:07:38;22.63;;;14.90;;
71679;SDS011;59512;42.662;23.254;2023-03-14T01:10:04;24.80;;;16.00;;
71679;SDS011;59512;42.662;23.254;2023-03-14T01:12:30;33.55;;;20.60;;
71679;SDS011;59512;42.662;23.254;2023-03-14T01:14:56;24.73;;;16.27;;
71679;SDS011;59512;42.662;23.254;2023-03-14T01:17:21;29.83;;;18.05;;
71679;SDS011;59512;42.662;23.254;2023-03-14T01:19:47;31.80;;;19.10;;
71679;SDS011;59512;42.662;23.254;2023-03-14T01:22:13;26.93;;;17.23;;
71679;SDS011;59512;42.662;23.254;2023-03-14T01:24:38;27.80;;;16.55;;
71679;SDS011;59512;42.662;23.254;2023-03-14T01:27:03;29.83;;;16.37;;
71679;SDS011;59512;42.662;23.254;2023-03-14T01:29:29;27.83;;;16.30;;
71679;SDS011;59512;42.662;23.254;2023-03-14T01:31:54;24.40;;;15.70;;
71679;SDS011;59512;42.662;23.254;2023-03-14T01:34:20;27.90;;;17.37;;
71679;SDS011;59512;42.662;23.254;2023-03-14T01:36:45;25.80;;;15.68;;
71679;SDS011;59512;42.662;23.254;2023-03-14T01:39:10;28.83;;;17.77;;
71679;SDS011;59512;42.662;23.254;2023-03-14T01:41:37;26.75;;;16.48;;
71679;SDS011;59512;42.662;23.254;2023-03-14T01:44:04;29.13;;;17.20;;
71679;SDS011;59512;42.662;23.254;2023-03-14T01:49:19;25.90;;;16.55;;
71679;SDS011;59512;42.662;23.254;2023-03-14T01:54:21;28.35;;;17.00;;
71679;SDS011;59512;42.662;23.254;2023-03-14T01:59:39;24.98;;;16.15;;
71679;SDS011;59512;42.662;23.254;2023-03-14T02:02:07;24.77;;;15.85;;
71679;SDS011;59512;42.662;23.254;2023-03-14T02:04:35;27.63;;;16.77;;
71679;SDS011;59512;42.662;23.254;2023-03-14T02:07:23;27.77;;;16.80;;
71679;SDS011;59512;42.662;23.254;2023-03-14T02:09:56;25.27;;;16.27;;
71679;SDS011;59512;42.662;23.254;2023-03-14T02:12:21;24.33;;;16.13;;
71679;SDS011;59512;42.662;23.254;2023-03-14T02:14:47;23.33;;;14.17;;
71679;SDS011;59512;42.662;23.254;2023-03-14T02:17:13;24.48;;;13.75;;
71679;SDS011;59512;42.662;23.254;2023-03-14T02:19:46;23.33;;;14.80;;
71679;SDS011;59512;42.662;23.254;2023-03-14T02:22:32;24.77;;;15.95;;
71679;SDS011;59512;42.662;23.254;2023-03-14T02:25:08;25.80;;;15.77;;
71679;SDS011;59512;42.662;23.254;2023-03-14T02:27:54;21.50;;;13.13;;
71679;SDS011;59512;42.662;23.254;2023-03-14T02:30:20;30.80;;;17.23;;
71679;SDS011;59512;42.662;23.254;2023-03-14T02:32:47;30.65;;;18.10;;
71679;SDS011;59512;42.662;23.254;2023-03-14T02:35:24;25.90;;;15.32;;
71679;SDS011;59512;42.662;23.254;2023-03-14T02:40:36;21.70;;;14.75;;
71679;SDS011;59512;42.662;23.254;2023-03-14T02:43:02;25.20;;;15.97;;
71679;SDS011;59512;42.662;23.254;2023-03-14T02:48:18;23.87;;;15.70;;
71679;SDS011;59512;42.662;23.254;2023-03-14T02:50:47;26.60;;;16.63;;
71679;SDS011;59512;42.662;23.254;2023-03-14T02:53:15;28.52;;;16.65;;
71679;SDS011;59512;42.662;23.254;2023-03-14T02:55:46;29.33;;;17.50;;
71679;SDS011;59512;42.662;23.254;2023-03-14T02:58:12;30.70;;;17.55;;
71679;SDS011;59512;42.662;23.254;2023-03-14T03:00:37;27.83;;;16.33;;
71679;SDS011;59512;42.662;23.254;2023-03-14T03:03:03;29.43;;;17.00;;
71679;SDS011;59512;42.662;23.254;2023-03-14T03:05:30;27.92;;;15.93;;
71679;SDS011;59512;42.662;23.254;2023-03-14T03:07:56;32.63;;;18.02;;
71679;SDS011;59512;42.662;23.254;2023-03-14T03:10:22;41.57;;;20.47;;
71679;SDS011;59512;42.662;23.254;2023-03-14T03:12:48;35.07;;;18.63;;
71679;SDS011;59512;42.662;23.254;2023-03-14T03:15:13;32.25;;;17.70;;
71679;SDS011;59512;42.662;23.254;2023-03-14T03:17:39;34.27;;;17.57;;
71679;SDS011;59512;42.662;23.254;2023-03-14T03:20:04;30.37;;;16.67;;
71679;SDS011;59512;42.662;23.254;2023-03-14T03:22:33;26.60;;;14.27;;
71679;SDS011;59512;42.662;23.254;2023-03-14T03:24:59;24.60;;;13.90;;
71679;SDS011;59512;42.662;23.254;2023-03-14T03:27:24;27.70;;;15.73;;
71679;SDS011;59512;42.662;23.254;2023-03-14T03:29:49;27.90;;;16.10;;
71679;SDS011;59512;42.662;23.254;2023-03-14T03:32:15;29.08;;;16.67;;
71679;SDS011;59512;42.662;23.254;2023-03-14T03:34:40;27.58;;;16.58;;
71679;SDS011;59512;42.662;23.254;2023-03-14T03:37:06;28.40;;;16.40;;
71679;SDS011;59512;42.662;23.254;2023-03-14T03:39:31;27.73;;;19.10;;
71679;SDS011;59512;42.662;23.254;2023-03-14T03:41:56;30.60;;;20.10;;
71679;SDS011;59512;42.662;23.254;2023-03-14T03:44:22;31.37;;;19.30;;
71679;SDS011;59512;42.662;23.254;2023-03-14T03:46:47;27.93;;;18.40;;
71679;SDS011;59512;42.662;23.254;2023-03-14T03:49:13;28.42;;;16.88;;
71679;SDS011;59512;42.662;23.254;2023-03-14T03:51:39;30.27;;;17.75;;
71679;SDS011;59512;42.662;23.254;2023-03-14T03:54:05;23.43;;;15.57;;
71679;SDS011;59512;42.662;23.254;2023-03-14T03:56:30;24.67;;;15.23;;
71679;SDS011;59512;42.662;23.254;2023-03-14T03:58:56;27.03;;;16.47;;
71679;SDS011;59512;42.662;23.254;2023-03-14T04:01:22;27.80;;;15.75;;
71679;SDS011;59512;42.662;23.254;2023-03-14T04:03:47;27.27;;;15.00;;
71679;SDS011;59512;42.662;23.254;2023-03-14T04:06:13;22.97;;;14.73;;
71679;SDS011;59512;42.662;23.254;2023-03-14T04:08:38;26.42;;;15.57;;
71679;SDS011;59512;42.662;23.254;2023-03-14T04:11:05;23.90;;;15.03;;
71679;SDS011;59512;42.662;23.254;2023-03-14T04:13:31;25.27;;;16.25;;
71679;SDS011;59512;42.662;23.254;2023-03-14T04:15:56;25.37;;;16.50;;
71679;SDS011;59512;42.662;23.254;2023-03-14T04:18:22;28.43;;;15.57;;
71679;SDS011;59512;42.662;23.254;2023-03-14T04:20:52;21.60;;;13.80;;
71679;SDS011;59512;42.662;23.254;2023-03-14T04:23:21;27.48;;;16.45;;
71679;SDS011;59512;42.662;23.254;2023-03-14T04:25:50;21.52;;;13.82;;
71679;SDS011;59512;42.662;23.254;2023-03-14T04:28:17;22.67;;;14.10;;
71679;SDS011;59512;42.662;23.254;2023-03-14T04:30:42;22.17;;;14.20;;
71679;SDS011;59512;42.662;23.254;2023-03-14T04:33:08;24.10;;;14.67;;
71679;SDS011;59512;42.662;23.254;2023-03-14T04:35:34;32.43;;;17.40;;
71679;SDS011;59512;42.662;23.254;2023-03-14T04:37:59;36.78;;;18.90;;
71679;SDS011;59512;42.662;23.254;2023-03-14T04:40:25;33.27;;;18.20;;
71679;SDS011;59512;42.662;23.254;2023-03-14T04:42:50;25.45;;;16.35;;
71679;SDS011;59512;42.662;23.254;2023-03-14T04:45:16;25.00;;;15.97;;
71679;SDS011;59512;42.662;23.254;2023-03-14T04:47:41;25.17;;;14.70;;
71679;SDS011;59512;42.662;23.254;2023-03-14T04:50:07;25.77;;;17.10;;
71679;SDS011;59512;42.662;23.254;2023-03-14T04:52:33;38.00;;;32.53;;
71679;SDS011;59512;42.662;23.254;2023-03-14T04:54:59;34.75;;;21.60;;
71679;SDS011;59512;42.662;23.254;2023-03-14T04:57:24;32.97;;;18.67;;
71679;SDS011;59512;42.662;23.254;2023-03-14T04:59:50;34.57;;;19.00;;
71679;SDS011;59512;42.662;23.254;2023-03-14T05:02:15;26.10;;;16.57;;
71679;SDS011;59512;42.662;23.254;2023-03-14T05:04:40;25.97;;;15.90;;
71679;SDS011;59512;42.662;23.254;2023-03-14T05:07:06;28.43;;;16.97;;
71679;SDS011;59512;42.662;23.254;2023-03-14T05:09:32;40.92;;;21.45;;
71679;SDS011;59512;42.662;23.254;2023-03-14T05:11:58;44.27;;;24.03;;
71679;SDS011;59512;42.662;23.254;2023-03-14T05:14:23;33.28;;;19.27;;
71679;SDS011;59512;42.662;23.254;2023-03-14T05:16:48;58.50;;;33.20;;
71679;SDS011;59512;42.662;23.254;2023-03-14T05:19:14;34.43;;;20.53;;
71679;SDS011;59512;42.662;23.254;2023-03-14T05:21:39;29.23;;;18.27;;
71679;SDS011;59512;42.662;23.254;2023-03-14T05:24:05;34.33;;;17.63;;
71679;SDS011;59512;42.662;23.254;2023-03-14T05:26:30;26.85;;;15.90;;
71679;SDS011;59512;42.662;23.254;2023-03-14T05:28:56;29.10;;;15.80;;
71679;SDS011;59512;42.662;23.254;2023-03-14T05:31:21;30.23;;;17.57;;
71679;SDS011;59512;42.662;23.254;2023-03-14T05:33:47;34.30;;;19.58;;
71679;SDS011;59512;42.662;23.254;2023-03-14T05:36:12;39.80;;;20.80;;
71679;SDS011;59512;42.662;23.254;2023-03-14T05:38:38;33.27;;;19.37;;
71679;SDS011;59512;42.662;23.254;2023-03-14T05:41:03;29.30;;;16.57;;
71679;SDS011;59512;42.662;23.254;2023-03-14T05:43:29;30.27;;;17.83;;
71679;SDS011;59512;42.662;23.254;2023-03-14T05:45:54;34.80;;;18.83;;
71679;SDS011;59512;42.662;23.254;2023-03-14T05:48:20;30.37;;;16.90;;
71679;SDS011;59512;42.662;23.254;2023-03-14T05:50:46;28.15;;;16.38;;
71679;SDS011;59512;42.662;23.254;2023-03-14T05:53:12;33.28;;;16.55;;
71679;SDS011;59512;42.662;23.254;2023-03-14T05:55:38;27.17;;;17.23;;
71679;SDS011;59512;42.662;23.254;2023-03-14T05:58:04;31.02;;;17.77;;
71679;SDS011;59512;42.662;23.254;2023-03-14T06:00:29;37.03;;;24.37;;
71679;SDS011;59512;42.662;23.254;2023-03-14T06:02:55;37.70;;;21.80;;
71679;SDS011;59512;42.662;23.254;2023-03-14T06:05:20;42.53;;;25.70;;
71679;SDS011;59512;42.662;23.254;2023-03-14T06:07:46;40.57;;;24.20;;
71679;SDS011;59512;42.662;23.254;2023-03-14T06:10:11;38.30;;;23.90;;
71679;SDS011;59512;42.662;23.254;2023-03-14T06:12:36;39.10;;;24.30;;
71679;SDS011;59512;42.662;23.254;2023-03-14T06:15:02;42.87;;;24.73;;
71679;SDS011;59512;42.662;23.254;2023-03-14T06:17:27;42.47;;;26.27;;
71679;SDS011;59512;42.662;23.254;2023-03-14T06:19:53;38.43;;;23.73;;
71679;SDS011;59512;42.662;23.254;2023-03-14T06:22:18;36.13;;;22.70;;
71679;SDS011;59512;42.662;23.254;2023-03-14T06:24:44;34.33;;;21.35;;
71679;SDS011;59512;42.662;23.254;2023-03-14T06:27:10;43.07;;;26.57;;
71679;SDS011;59512;42.662;23.254;2023-03-14T06:29:35;39.60;;;23.30;;
71679;SDS011;59512;42.662;23.254;2023-03-14T06:32:00;38.83;;;22.60;;
71679;SDS011;59512;42.662;23.254;2023-03-14T06:34:26;33.50;;;21.37;;
71679;SDS011;59512;42.662;23.254;2023-03-14T06:36:51;32.73;;;21.63;;
71679;SDS011;59512;42.662;23.254;2023-03-14T06:39:17;34.57;;;22.07;;
71679;SDS011;59512;42.662;23.254;2023-03-14T06:41:42;37.83;;;21.90;;
71679;SDS011;59512;42.662;23.254;2023-03-14T06:44:07;39.08;;;24.15;;
71679;SDS011;59512;42.662;23.254;2023-03-14T06:46:33;38.67;;;22.13;;
71679;SDS011;59512;42.662;23.254;2023-03-14T06:48:58;34.40;;;20.90;;
71679;SDS011;59512;42.662;23.254;2023-03-14T06:51:24;32.23;;;21.63;;
71679;SDS011;59512;42.662;23.254;2023-03-14T06:53:49;35.13;;;23.10;;
71679;SDS011;59512;42.662;23.254;2023-03-14T06:56:15;37.55;;;22.92;;
71679;SDS011;59512;42.662;23.254;2023-03-14T06:58:40;30.37;;;19.17;;
71679;SDS011;59512;42.662;23.254;2023-03-14T07:01:05;28.63;;;18.70;;
71679;SDS011;59512;42.662;23.254;2023-03-14T07:03:35;29.00;;;18.90;;
71679;SDS011;59512;42.662;23.254;2023-03-14T07:06:00;33.27;;;20.80;;
71679;SDS011;59512;42.662;23.254;2023-03-14T07:08:26;39.50;;;23.20;;
71679;SDS011;59512;42.662;23.254;2023-03-14T07:10:51;34.80;;;21.40;;
71679;SDS011;59512;42.662;23.254;2023-03-14T07:13:16;31.10;;;19.33;;
71679;SDS011;59512;42.662;23.254;2023-03-14T07:15:42;35.20;;;22.05;;
71679;SDS011;59512;42.662;23.254;2023-03-14T07:18:07;34.87;;;20.70;;
71679;SDS011;59512;42.662;23.254;2023-03-14T07:20:33;30.60;;;19.37;;
71679;SDS011;59512;42.662;23.254;2023-03-14T07:22:58;34.57;;;21.43;;
71679;SDS011;59512;42.662;23.254;2023-03-14T07:25:28;28.27;;;18.92;;
71679;SDS011;59512;42.662;23.254;2023-03-14T07:27:53;32.83;;;17.93;;
71679;SDS011;59512;42.662;23.254;2023-03-14T07:30:18;31.50;;;18.93;;
71679;SDS011;59512;42.662;23.254;2023-03-14T07:32:44;32.78;;;19.30;;
71679;SDS011;59512;42.662;23.254;2023-03-14T07:35:09;26.57;;;18.57;;
71679;SDS011;59512;42.662;23.254;2023-03-14T07:37:35;30.20;;;18.43;;
71679;SDS011;59512;42.662;23.254;2023-03-14T07:40:00;30.73;;;18.27;;
71679;SDS011;59512;42.662;23.254;2023-03-14T07:42:26;24.37;;;15.00;;
71679;SDS011;59512;42.662;23.254;2023-03-14T07:44:51;23.97;;;14.67;;
71679;SDS011;59512;42.662;23.254;2023-03-14T07:47:16;24.45;;;14.35;;
71679;SDS011;59512;42.662;23.254;2023-03-14T07:49:42;25.63;;;14.03;;
71679;SDS011;59512;42.662;23.254;2023-03-14T07:52:07;24.17;;;14.40;;
71679;SDS011;59512;42.662;23.254;2023-03-14T07:54:33;27.67;;;15.97;;
71679;SDS011;59512;42.662;23.254;2023-03-14T07:56:58;30.73;;;16.93;;
71679;SDS011;59512;42.662;23.254;2023-03-14T07:59:25;25.40;;;15.27;;
71679;SDS011;59512;42.662;23.254;2023-03-14T08:01:51;27.92;;;16.77;;
71679;SDS011;59512;42.662;23.254;2023-03-14T08:04:17;23.57;;;15.00;;
71679;SDS011;59512;42.662;23.254;2023-03-14T08:06:42;23.33;;;14.57;;
71679;SDS011;59512;42.662;23.254;2023-03-14T08:09:08;23.23;;;13.95;;
71679;SDS011;59512;42.662;23.254;2023-03-14T08:11:33;23.10;;;14.57;;
71679;SDS011;59512;42.662;23.254;2023-03-14T08:13:59;27.17;;;14.97;;
71679;SDS011;59512;42.662;23.254;2023-03-14T08:16:24;28.25;;;15.80;;
71679;SDS011;59512;42.662;23.254;2023-03-14T08:18:50;29.07;;;15.60;;
71679;SDS011;59512;42.662;23.254;2023-03-14T08:21:15;27.10;;;16.13;;
71679;SDS011;59512;42.662;23.254;2023-03-14T08:23:41;28.70;;;16.37;;
71679;SDS011;59512;42.662;23.254;2023-03-14T08:26:06;22.53;;;15.03;;
71679;SDS011;59512;42.662;23.254;2023-03-14T08:28:32;24.42;;;16.58;;
71679;SDS011;59512;42.662;23.254;2023-03-14T08:30:58;25.13;;;16.23;;
71679;SDS011;59512;42.662;23.254;2023-03-14T08:33:24;27.83;;;16.50;;
71679;SDS011;59512;42.662;23.254;2023-03-14T08:35:52;25.42;;;15.90;;
71679;SDS011;59512;42.662;23.254;2023-03-14T08:38:18;26.90;;;15.07;;
71679;SDS011;59512;42.662;23.254;2023-03-14T08:40:43;28.00;;;16.90;;
71679;SDS011;59512;42.662;23.254;2023-03-14T08:43:09;26.67;;;15.83;;
71679;SDS011;59512;42.662;23.254;2023-03-14T08:45:34;24.67;;;15.38;;
71679;SDS011;59512;42.662;23.254;2023-03-14T08:47:59;25.77;;;15.52;;
71679;SDS011;59512;42.662;23.254;2023-03-14T08:50:25;26.63;;;15.60;;
71679;SDS011;59512;42.662;23.254;2023-03-14T08:52:51;26.00;;;17.05;;
71679;SDS011;59512;42.662;23.254;2023-03-14T08:55:17;25.42;;;17.48;;
71679;SDS011;59512;42.662;23.254;2023-03-14T08:57:42;32.75;;;18.67;;
71679;SDS011;59512;42.662;23.254;2023-03-14T09:00:08;26.90;;;17.97;;
71679;SDS011;59512;42.662;23.254;2023-03-14T09:02:37;28.88;;;17.98;;
71679;SDS011;59512;42.662;23.254;2023-03-14T09:05:03;29.57;;;18.37;;
71679;SDS011;59512;42.662;23.254;2023-03-14T09:07:29;28.15;;;17.98;;
71679;SDS011;59512;42.662;23.254;2023-03-14T09:09:54;32.00;;;18.03;;
71679;SDS011;59512;42.662;23.254;2023-03-14T09:12:20;25.80;;;16.10;;
71679;SDS011;59512;42.662;23.254;2023-03-14T09:14:45;26.02;;;16.05;;
71679;SDS011;59512;42.662;23.254;2023-03-14T09:17:11;25.80;;;14.37;;
71679;SDS011;59512;42.662;23.254;2023-03-14T09:19:36;20.90;;;13.97;;
71679;SDS011;59512;42.662;23.254;2023-03-14T09:22:02;21.95;;;15.20;;
71679;SDS011;59512;42.662;23.254;2023-03-14T09:24:27;22.50;;;15.10;;
71679;SDS011;59512;42.662;23.254;2023-03-14T09:26:54;23.10;;;15.20;;
71679;SDS011;59512;42.662;23.254;2023-03-14T09:29:20;21.23;;;13.38;;
71679;SDS011;59512;42.662;23.254;2023-03-14T09:31:46;20.57;;;12.53;;
71679;SDS011;59512;42.662;23.254;2023-03-14T09:34:11;18.70;;;12.77;;
71679;SDS011;59512;42.662;23.254;2023-03-14T09:36:37;20.73;;;12.93;;
71679;SDS011;59512;42.662;23.254;2023-03-14T09:39:03;19.73;;;11.30;;
71679;SDS011;59512;42.662;23.254;2023-03-14T09:41:39;17.52;;;11.25;;
71679;SDS011;59512;42.662;23.254;2023-03-14T09:46:47;29.60;;;22.80;;
71679;SDS011;59512;42.662;23.254;2023-03-14T09:51:53;17.95;;;12.48;;
71679;SDS011;59512;42.662;23.254;2023-03-14T09:54:29;15.40;;;10.73;;
71679;SDS011;59512;42.662;23.254;2023-03-14T09:57:04;18.47;;;10.50;;
71679;SDS011;59512;42.662;23.254;2023-03-14T09:59:30;20.45;;;13.05;;
71679;SDS011;59512;42.662;23.254;2023-03-14T10:02:00;21.85;;;11.73;;
71679;SDS011;59512;42.662;23.254;2023-03-14T10:04:26;22.48;;;14.93;;
71679;SDS011;59512;42.662;23.254;2023-03-14T10:06:55;18.65;;;10.90;;
71679;SDS011;59512;42.662;23.254;2023-03-14T10:09:21;20.63;;;13.37;;
71679;SDS011;59512;42.662;23.254;2023-03-14T10:11:54;16.77;;;12.27;;
71679;SDS011;59512;42.662;23.254;2023-03-14T10:14:34;18.80;;;9.70;;
71679;SDS011;59512;42.662;23.254;2023-03-14T10:17:05;18.75;;;10.75;;
71679;SDS011;59512;42.662;23.254;2023-03-14T10:19:32;17.25;;;10.50;;
71679;SDS011;59512;42.662;23.254;2023-03-14T10:22:00;15.70;;;10.30;;
71679;SDS011;59512;42.662;23.254;2023-03-14T10:24:30;18.00;;;12.13;;
71679;SDS011;59512;42.662;23.254;2023-03-14T10:27:17;19.33;;;10.45;;
71679;SDS011;59512;42.662;23.254;2023-03-14T10:29:55;20.33;;;11.05;;
71679;SDS011;59512;42.662;23.254;2023-03-14T10:32:23;20.92;;;11.70;;
71679;SDS011;59512;42.662;23.254;2023-03-14T10:37:59;19.17;;;11.60;;
71679;SDS011;59512;42.662;23.254;2023-03-14T10:40:38;20.70;;;13.13;;
71679;SDS011;59512;42.662;23.254;2023-03-14T10:43:06;15.07;;;10.23;;
71679;SDS011;59512;42.662;23.254;2023-03-14T10:45:38;17.60;;;11.38;;
71679;SDS011;59512;42.662;23.254;2023-03-14T10:50:56;15.83;;;10.47;;
71679;SDS011;59512;42.662;23.254;2023-03-14T10:53:25;15.05;;;9.43;;
71679;SDS011;59512;42.662;23.254;2023-03-14T10:55:51;19.58;;;10.00;;
71679;SDS011;59512;42.662;23.254;2023-03-14T10:58:19;17.02;;;9.70;;
71679;SDS011;59512;42.662;23.254;2023-03-14T11:00:47;16.03;;;9.17;;
71679;SDS011;59512;42.662;23.254;2023-03-14T11:03:17;17.33;;;9.30;;
71679;SDS011;59512;42.662;23.254;2023-03-14T11:08:15;19.02;;;9.70;;
71679;SDS011;59512;42.662;23.254;2023-03-14T11:11:30;17.67;;;9.77;;
71679;SDS011;59512;42.662;23.254;2023-03-14T11:16:27;15.07;;;9.48;;
71679;SDS011;59512;42.662;23.254;2023-03-14T11:19:07;18.88;;;9.57;;
71679;SDS011;59512;42.662;23.254;2023-03-14T11:27:52;16.90;;;8.80;;
71679;SDS011;59512;42.662;23.254;2023-03-14T11:33:16;13.57;;;8.25;;
71679;SDS011;59512;42.662;23.254;2023-03-14T11:35:58;16.10;;;8.57;;
71679;SDS011;59512;42.662;23.254;2023-03-14T11:41:04;15.73;;;7.83;;
71679;SDS011;59512;42.662;23.254;2023-03-14T11:43:36;14.40;;;8.48;;
71679;SDS011;59512;42.662;23.254;2023-03-14T11:46:14;13.25;;;7.90;;
71679;SDS011;59512;42.662;23.254;2023-03-14T11:48:56;17.08;;;7.78;;
71679;SDS011;59512;42.662;23.254;2023-03-14T11:51:34;14.50;;;7.88;;
71679;SDS011;59512;42.662;23.254;2023-03-14T12:10:43;10.85;;;6.80;;
71679;SDS011;59512;42.662;23.254;2023-03-14T12:13:12;11.35;;;5.85;;
71679;SDS011;59512;42.662;23.254;2023-03-14T12:15:39;11.65;;;5.93;;
71679;SDS011;59512;42.662;23.254;2023-03-14T12:18:41;10.80;;;5.83;;
71679;SDS011;59512;42.662;23.254;2023-03-14T12:21:04;12.13;;;5.40;;
71679;SDS011;59512;42.662;23.254;2023-03-14T12:23:36;12.38;;;5.35;;
71679;SDS011;59512;42.662;23.254;2023-03-14T12:26:24;10.40;;;5.80;;
71679;SDS011;59512;42.662;23.254;2023-03-14T12:34:03;9.70;;;5.20;;
71679;SDS011;59512;42.662;23.254;2023-03-14T12:39:35;11.25;;;4.80;;
71679;SDS011;59512;42.662;23.254;2023-03-14T12:47:50;16.45;;;7.70;;
71679;SDS011;59512;42.662;23.254;2023-03-14T12:50:19;9.75;;;4.45;;
71679;SDS011;59512;42.662;23.254;2023-03-14T12:55:26;9.77;;;3.70;;
71679;SDS011;59512;42.662;23.254;2023-03-14T12:58:31;8.63;;;4.10;;
71679;SDS011;59512;42.662;23.254;2023-03-14T13:01:01;7.47;;;3.97;;
71679;SDS011;59512;42.662;23.254;2023-03-14T13:03:50;11.52;;;4.40;;
71679;SDS011;59512;42.662;23.254;2023-03-14T13:11:52;9.60;;;3.87;;
71679;SDS011;59512;42.662;23.254;2023-03-14T13:14:18;8.00;;;3.75;;
71679;SDS011;59512;42.662;23.254;2023-03-14T13:16:44;6.93;;;3.67;;
71679;SDS011;59512;42.662;23.254;2023-03-14T13:19:17;9.80;;;3.65;;
71679;SDS011;59512;42.662;23.254;2023-03-14T13:21:45;9.60;;;3.33;;
71679;SDS011;59512;42.662;23.254;2023-03-14T13:24:21;9.10;;;3.40;;
71679;SDS011;59512;42.662;23.254;2023-03-14T13:26:49;9.30;;;3.25;;
71679;SDS011;59512;42.662;23.254;2023-03-14T13:31:48;9.43;;;3.30;;
71679;SDS011;59512;42.662;23.254;2023-03-14T13:34:14;7.40;;;3.13;;
71679;SDS011;59512;42.662;23.254;2023-03-14T13:36:40;9.60;;;3.30;;
71679;SDS011;59512;42.662;23.254;2023-03-14T13:39:27;10.23;;;3.22;;
71679;SDS011;59512;42.662;23.254;2023-03-14T13:41:53;7.10;;;3.00;;
71679;SDS011;59512;42.662;23.254;2023-03-14T13:44:36;10.03;;;3.17;;
71679;SDS011;59512;42.662;23.254;2023-03-14T13:47:03;8.50;;;3.20;;
71679;SDS011;59512;42.662;23.254;2023-03-14T13:49:31;7.35;;;3.10;;
71679;SDS011;59512;42.662;23.254;2023-03-14T13:52:00;9.38;;;2.65;;
71679;SDS011;59512;42.662;23.254;2023-03-14T13:54:26;6.82;;;3.35;;
71679;SDS011;59512;42.662;23.254;2023-03-14T13:56:59;6.90;;;3.15;;
71679;SDS011;59512;42.662;23.254;2023-03-14T13:59:29;7.03;;;2.83;;
71679;SDS011;59512;42.662;23.254;2023-03-14T14:01:56;10.23;;;3.00;;
71679;SDS011;59512;42.662;23.254;2023-03-14T14:04:24;7.93;;;3.10;;
71679;SDS011;59512;42.662;23.254;2023-03-14T14:06:55;8.43;;;3.23;;
71679;SDS011;59512;42.662;23.254;2023-03-14T14:09:24;8.10;;;3.42;;
71679;SDS011;59512;42.662;23.254;2023-03-14T14:14:28;9.25;;;3.60;;
71679;SDS011;59512;42.662;23.254;2023-03-14T14:17:03;8.50;;;3.20;;
71679;SDS011;59512;42.662;23.254;2023-03-14T14:19:30;8.70;;;2.87;;
71679;SDS011;59512;42.662;23.254;2023-03-14T14:21:56;8.00;;;2.70;;
71679;SDS011;59512;42.662;23.254;2023-03-14T14:24:23;8.80;;;3.10;;
71679;SDS011;59512;42.662;23.254;2023-03-14T14:26:50;8.80;;;3.40;;
71679;SDS011;59512;42.662;23.254;2023-03-14T14:29:23;7.13;;;2.75;;
71679;SDS011;59512;42.662;23.254;2023-03-14T14:32:02;7.05;;;2.58;;
71679;SDS011;59512;42.662;23.254;2023-03-14T14:34:28;8.27;;;3.40;;
71679;SDS011;59512;42.662;23.254;2023-03-14T14:36:53;8.30;;;3.13;;
71679;SDS011;59512;42.662;23.254;2023-03-14T14:39:20;6.13;;;3.13;;
71679;SDS011;59512;42.662;23.254;2023-03-14T14:41:50;7.55;;;3.33;;
71679;SDS011;59512;42.662;23.254;2023-03-14T14:44:27;6.55;;;3.05;;
71679;SDS011;59512;42.662;23.254;2023-03-14T14:46:55;7.40;;;3.13;;
71679;SDS011;59512;42.662;23.254;2023-03-14T14:49:21;7.53;;;3.00;;
71679;SDS011;59512;42.662;23.254;2023-03-14T14:51:59;7.65;;;2.85;;
71679;SDS011;59512;42.662;23.254;2023-03-14T14:54:42;9.60;;;2.85;;
71679;SDS011;59512;42.662;23.254;2023-03-14T14:57:17;7.35;;;2.63;;
71679;SDS011;59512;42.662;23.254;2023-03-14T14:59:47;9.05;;;2.67;;
71679;SDS011;59512;42.662;23.254;2023-03-14T15:02:24;7.47;;;3.43;;
71679;SDS011;59512;42.662;23.254;2023-03-14T15:04:56;6.22;;;2.85;;
71679;SDS011;59512;42.662;23.254;2023-03-14T15:07:21;7.78;;;2.90;;
71679;SDS011;59512;42.662;23.254;2023-03-14T15:09:46;7.97;;;2.57;;
71679;SDS011;59512;42.662;23.254;2023-03-14T15:12:12;9.57;;;3.10;;
71679;SDS011;59512;42.662;23.254;2023-03-14T15:14:37;6.63;;;2.80;;
71679;SDS011;59512;42.662;23.254;2023-03-14T15:17:03;6.22;;;2.78;;
71679;SDS011;59512;42.662;23.254;2023-03-14T15:19:28;5.90;;;2.50;;
71679;SDS011;59512;42.662;23.254;2023-03-14T15:21:57;9.10;;;2.92;;
71679;SDS011;59512;42.662;23.254;2023-03-14T15:24:23;6.70;;;3.03;;
71679;SDS011;59512;42.662;23.254;2023-03-14T15:26:48;7.00;;;2.80;;
71679;SDS011;59512;42.662;23.254;2023-03-14T15:29:14;5.47;;;2.45;;
71679;SDS011;59512;42.662;23.254;2023-03-14T15:31:39;8.07;;;2.40;;
71679;SDS011;59512;42.662;23.254;2023-03-14T15:34:05;6.75;;;2.60;;
71679;SDS011;59512;42.662;23.254;2023-03-14T15:36:31;7.23;;;3.10;;
71679;SDS011;59512;42.662;23.254;2023-03-14T15:38:58;6.40;;;2.88;;
71679;SDS011;59512;42.662;23.254;2023-03-14T15:41:24;6.47;;;2.83;;
71679;SDS011;59512;42.662;23.254;2023-03-14T15:43:50;6.37;;;2.40;;